Time;durP1;ratioP1;P1;durP2;ratioP2;P2;SDS_P1;SDS_P2;PMS_P1;PMS_P2;Temp;Humidity;BMP_temperature;BMP_pressure;BME280_temperature;BME280_humidity;BME280_pressure;Samples;Min_cycle;Max_cycle;Signal;HPM_P1;HPM_P2
2022/08/04 00:01:46;;;;;;;;;;;;;;;18.17;66.53;99062.92;1426542;82;68320;-74
2022/08/04 00:03:52;;;;;;;;;;;;;;;18.16;66.58;99059.04;1425510;81;20973;-75
2022/08/04 00:06:12;;;;;;;;;;;;;;;18.15;66.55;99064.00;1428061;81;68070;-75
2022/08/04 00:08:30;;;;;;;;;;;;;;;17.98;66.64;99038.66;1414311;82;20133;-75
2022/08/04 00:10:37;;;;;;;;;;;;;;;18.09;66.70;99062.67;1428051;80;67832;-73
2022/08/04 00:12:44;;;;;;;;;;;;;;;18.02;66.80;99060.95;1458310;79;20193;-75
2022/08/04 00:14:49;;;;;;;;;;;;;;;17.96;66.87;99057.94;1429786;81;20255;-76
2022/08/04 00:16:53;;;;;;;;;;;;;;;17.90;66.96;99061.03;1427420;82;67868;-75
2022/08/04 00:18:55;;;;;;;;;;;;;;;17.82;67.07;99057.16;1428760;81;20295;-74
2022/08/04 00:20:58;;;;;;;;;;;;;;;17.77;67.13;99062.47;1427886;81;67719;-75
2022/08/04 00:22:59;;;;;;;;;;;;;;;17.70;67.21;99055.42;1428723;81;20173;-74
2022/08/04 00:25:06;;;;;;;;;;;;;;;17.63;67.26;99060.38;1427494;81;20167;-73
2022/08/04 00:27:07;;;;;;;;;;;;;;;17.56;67.34;99061.81;1428224;81;67049;-76
2022/08/04 00:29:08;;;;;;;;;;;;;;;17.51;67.45;99063.50;1426862;82;20130;-76
2022/08/04 00:31:11;;;;;;;;;;;;;;;17.48;67.58;99061.05;1428722;81;67834;-75
2022/08/04 00:33:14;;;;;;;;;;;;;;;17.47;67.64;99058.50;1426306;81;20162;-74
2022/08/04 00:35:16;;;;;;;;;;;;;;;17.44;67.68;99059.58;1427340;81;20566;-74
2022/08/04 00:37:19;;;;;;;;;;;;;;;17.41;67.76;99058.48;1411442;82;67150;-76
2022/08/04 00:39:20;;;;;;;;;;;;;;;17.36;67.78;99061.97;1429224;81;20285;-76
2022/08/04 00:41:29;;;;;;;;;;;;;;;17.33;67.89;99063.08;1426992;80;67033;-77
2022/08/04 00:43:31;;;;;;;;;;;;;;;17.33;67.96;99064.41;1431053;81;20266;-75
2022/08/04 00:45:34;;;;;;;;;;;;;;;17.31;68.05;99061.48;1429134;79;67175;-76
2022/08/04 00:47:45;;;;;;;;;;;;;;;17.30;68.11;99065.94;1454599;79;20164;-75
2022/08/04 00:50:06;;;;;;;;;;;;;;;17.28;68.14;99065.22;1428183;82;20375;-76
2022/08/04 00:52:12;;;;;;;;;;;;;;;17.27;68.18;99064.02;1426089;81;67764;-75
2022/08/04 00:54:32;;;;;;;;;;;;;;;17.24;68.23;99065.55;1414447;81;20166;-75
2022/08/04 00:56:35;;;;;;;;;;;;;;;17.21;68.24;99065.32;1410367;81;68524;-75
2022/08/04 00:58:47;;;;;;;;;;;;;;;17.19;68.31;99070.73;1427537;81;20152;-75
2022/08/04 01:00:52;;;;;;;;;;;;;;;17.18;68.37;99066.86;1425450;79;67818;-76
2022/08/04 01:02:55;;;;;;;;;;;;;;;17.18;68.41;99065.52;1425736;81;20154;-75
2022/08/04 01:04:57;;;;;;;;;;;;;;;17.15;68.44;99070.59;1427617;82;20194;-75
2022/08/04 01:07:06;;;;;;;;;;;;;;;17.11;68.51;99069.15;1426764;81;67925;-75
2022/08/04 01:09:21;;;;;;;;;;;;;;;17.08;68.59;99068.52;1379677;85;20194;-75
2022/08/04 01:11:26;;;;;;;;;;;;;;;17.04;68.62;99066.55;1377970;84;68040;-74
2022/08/04 01:13:45;;;;;;;;;;;;;;;17.01;68.66;99070.77;1351423;86;20155;-75
2022/08/04 01:16:06;;;;;;;;;;;;;;;16.97;68.69;99063.48;1381238;83;67238;-75
2022/08/04 01:18:07;;;;;;;;;;;;;;;16.95;68.74;99064.58;1396720;83;20172;-75
2022/08/04 01:20:09;;;;;;;;;;;;;;;16.91;68.80;99069.76;1379118;85;21037;-75
2022/08/04 01:22:30;;;;;;;;;;;;;;;16.87;68.83;99073.08;1380611;84;67940;-75
2022/08/04 01:24:49;;;;;;;;;;;;;;;16.80;68.87;99070.01;1377456;85;20175;-76
2022/08/04 01:26:51;;;;;;;;;;;;;;;16.75;68.98;99074.81;1378873;82;67217;-74
2022/08/04 01:28:54;;;;;;;;;;;;;;;16.71;69.05;99075.16;1381302;85;20945;-76
2022/08/04 01:31:00;;;;;;;;;;;;;;;16.69;69.14;99069.95;1377767;82;67289;-75
2022/08/04 01:33:03;;;;;;;;;;;;;;;16.67;69.17;99071.39;1379064;85;20506;-74
2022/08/04 01:35:10;;;;;;;;;;;;;;;16.65;69.21;99068.46;1383038;85;20240;-74
2022/08/04 01:37:12;;;;;;;;;;;;;;;16.65;69.34;99067.12;1380385;84;66942;-76
2022/08/04 01:41:33;;;;;;;;;;;;;;;16.65;69.43;99069.80;1380055;84;67048;-75
2022/08/04 01:43:37;;;;;;;;;;;;;;;16.66;69.55;99064.84;1375568;85;20193;-75
2022/08/04 01:45:39;;;;;;;;;;;;;;;16.67;69.60;99070.55;1352384;83;67336;-74
2022/08/04 01:47:51;;;;;;;;;;;;;;;16.69;69.63;99064.62;1434487;80;20601;-74
2022/08/04 01:49:53;;;;;;;;;;;;;;;16.68;69.67;99061.13;1433774;81;20130;-75
2022/08/04 01:51:55;;;;;;;;;;;;;;;16.69;69.64;99064.62;1433219;80;68821;-77
2022/08/04 01:53:56;;;;;;;;;;;;;;;16.69;69.67;99067.28;1435549;80;20112;-75
2022/08/04 01:55:58;;;;;;;;;;;;;;;16.67;69.68;99070.55;1432228;81;66981;-75
2022/08/04 01:57:59;;;;;;;;;;;;;;;16.65;69.77;99067.12;1433671;80;20163;-75
2022/08/04 02:00:05;;;;;;;;;;;;;;;16.64;69.72;99067.62;1435800;80;20154;-75
2022/08/04 02:02:06;;;;;;;;;;;;;;;16.63;69.84;99065.92;1434589;79;67184;-75
2022/08/04 02:04:06;;;;;;;;;;;;;;;16.62;69.84;99064.70;1438082;80;20137;-76
2022/08/04 02:06:14;;;;;;;;;;;;;;;16.60;69.84;99066.60;1434289;79;67019;-73
2022/08/04 02:08:16;;;;;;;;;;;;;;;16.55;69.83;99059.45;1436102;81;20142;-75
2022/08/04 02:10:28;;;;;;;;;;;;;;;16.50;69.86;99057.97;1432766;80;20195;-75
2022/08/04 02:12:40;;;;;;;;;;;;;;;16.44;69.89;99055.73;1436027;80;20206;-76
2022/08/04 02:15:02;;;;;;;;;;;;;;;16.40;69.97;99051.59;1438190;80;20606;-75
2022/08/04 02:17:04;;;;;;;;;;;;;;;16.37;70.04;99057.14;1445904;79;67063;-74
2022/08/04 02:19:16;;;;;;;;;;;;;;;16.30;70.04;99051.89;1408292;82;21089;-74
2022/08/04 02:21:19;;;;;;;;;;;;;;;16.25;70.14;99058.00;1419360;81;67226;-74
2022/08/04 02:23:36;;;;;;;;;;;;;;;16.17;70.24;99054.08;1450532;80;20143;-74
2022/08/04 02:25:43;;;;;;;;;;;;;;;16.12;70.28;99052.21;1445966;80;68521;-75
2022/08/04 02:27:46;;;;;;;;;;;;;;;16.10;70.38;99058.13;1445703;80;20163;-74
2022/08/04 02:29:48;;;;;;;;;;;;;;;16.07;70.44;99049.50;1444683;80;20248;-74
2022/08/04 02:31:52;;;;;;;;;;;;;;;16.06;70.45;99053.98;1442592;80;67193;-74
2022/08/04 02:34:12;;;;;;;;;;;;;;;16.04;70.50;99046.58;1446620;80;20155;-75
2022/08/04 02:36:14;;;;;;;;;;;;;;;16.00;70.50;99053.94;1442797;80;67156;-74
2022/08/04 02:38:17;;;;;;;;;;;;;;;15.98;70.58;99051.84;1443484;80;20176;-74
2022/08/04 02:40:19;;;;;;;;;;;;;;;15.97;70.68;99053.28;1444731;80;20446;-74
2022/08/04 02:42:20;;;;;;;;;;;;;;;15.97;70.71;99052.80;1436810;81;66938;-75
2022/08/04 02:44:22;;;;;;;;;;;;;;;15.95;70.73;99051.20;1432331;81;20455;-75
2022/08/04 02:46:26;;;;;;;;;;;;;;;15.94;70.77;99049.52;1428957;81;67185;-75
2022/08/04 02:48:27;;;;;;;;;;;;;;;15.93;70.81;99049.14;1416186;82;20184;-73
2022/08/04 02:50:30;;;;;;;;;;;;;;;15.92;70.87;99046.09;1430448;79;68063;-75
2022/08/04 02:52:31;;;;;;;;;;;;;;;15.92;70.92;99048.30;1435537;81;20123;-74
2022/08/04 02:54:34;;;;;;;;;;;;;;;15.93;70.98;99050.47;1432095;81;20140;-74
2022/08/04 02:56:35;;;;;;;;;;;;;;;15.93;71.06;99046.48;1431456;81;67101;-74
2022/08/04 02:58:37;;;;;;;;;;;;;;;15.94;71.08;99042.88;1429096;81;20166;-75
2022/08/04 03:00:38;;;;;;;;;;;;;;;15.93;71.10;99044.66;1429446;81;68424;-74
2022/08/04 03:02:40;;;;;;;;;;;;;;;15.95;71.17;99043.22;1431053;81;20178;-74
2022/08/04 03:04:46;;;;;;;;;;;;;;;15.94;71.06;99044.20;1429818;81;20308;-76
2022/08/04 03:07:05;;;;;;;;;;;;;;;15.93;71.07;99043.82;1433854;81;67165;-74
2022/08/04 03:09:23;;;;;;;;;;;;;;;15.91;71.14;99043.94;1429563;81;20217;-75
2022/08/04 03:11:25;;;;;;;;;;;;;;;15.91;71.22;99041.73;1429872;79;67098;-75
2022/08/04 03:13:28;;;;;;;;;;;;;;;15.89;71.24;99048.98;1430416;82;20119;-75
2022/08/04 03:15:39;;;;;;;;;;;;;;;15.88;71.25;99048.59;1429576;81;68792;-74
2022/08/04 03:17:47;;;;;;;;;;;;;;;15.82;71.22;99048.09;1432223;81;20130;-75
2022/08/04 03:20:06;;;;;;;;;;;;;;;15.78;71.27;99050.55;1428698;81;20111;-76
2022/08/04 03:22:08;;;;;;;;;;;;;;;15.76;71.31;99055.10;1431455;81;67295;-75
2022/08/04 03:24:14;;;;;;;;;;;;;;;15.74;71.37;99050.39;1434182;81;20209;-74
2022/08/04 03:26:33;;;;;;;;;;;;;;;15.71;71.42;99051.90;1427542;80;67251;-75
2022/08/04 03:28:51;;;;;;;;;;;;;;;15.71;71.47;99057.22;1433053;81;20193;-73
2022/08/04 03:30:54;;;;;;;;;;;;;;;15.70;71.47;99055.53;1429674;79;68008;-74
2022/08/04 03:32:56;;;;;;;;;;;;;;;15.69;71.54;99051.62;1433208;81;20164;-74
2022/08/04 03:35:15;;;;;;;;;;;;;;;15.67;71.63;99057.05;1431939;81;20437;-74
2022/08/04 03:37:30;;;;;;;;;;;;;;;15.69;71.72;99052.50;1432057;79;68099;-74
2022/08/04 03:39:49;;;;;;;;;;;;;;;15.71;71.74;99053.23;1431917;81;20164;-75
2022/08/04 03:42:09;;;;;;;;;;;;;;;15.70;71.75;99055.53;1432373;79;67089;-75
2022/08/04 03:44:15;;;;;;;;;;;;;;;15.69;71.78;99053.83;1464565;79;20165;-74
2022/08/04 03:46:27;;;;;;;;;;;;;;;15.71;71.81;99053.72;1458295;78;67828;-74
2022/08/04 03:48:47;;;;;;;;;;;;;;;15.70;71.81;99055.53;1464510;79;20148;-75
2022/08/04 03:53:37;;;;;;;;;;;;;;;15.73;71.88;99050.46;1462026;79;20161;-75
2022/08/04 03:55:49;;;;;;;;;;;;;;;15.73;71.91;99059.30;1464612;79;67346;-75
2022/08/04 03:57:58;;;;;;;;;;;;;;;15.71;71.96;99057.22;1463510;79;20496;-76
2022/08/04 04:00:00;;;;;;;;;;;;;;;15.71;72.00;99055.05;1462307;79;20165;-74
2022/08/04 04:02:06;;;;;;;;;;;;;;;15.73;72.06;99056.65;1461273;79;67957;-75
2022/08/04 04:04:12;;;;;;;;;;;;;;;15.75;72.10;99065.34;1466157;79;20191;-74
2022/08/04 04:06:31;;;;;;;;;;;;;;;15.75;72.11;99056.54;1463553;79;67914;-75
2022/08/04 04:08:43;;;;;;;;;;;;;;;15.75;72.17;99048.56;1464289;79;20162;-75
2022/08/04 04:11:02;;;;;;;;;;;;;;;15.79;72.21;99056.70;1462791;79;68297;-75
2022/08/04 04:13:22;;;;;;;;;;;;;;;15.82;72.26;99054.73;1463887;79;20169;-75
2022/08/04 04:15:31;;;;;;;;;;;;;;;15.89;72.28;99059.61;1463998;79;20283;-75
2022/08/04 04:17:39;;;;;;;;;;;;;;;15.95;72.30;99061.83;1467666;79;20569;-74
2022/08/04 04:20:00;;;;;;;;;;;;;;;16.00;72.32;99058.38;1463172;79;20171;-74
2022/08/04 04:22:15;;;;;;;;;;;;;;;16.05;72.34;99062.91;1463456;79;67918;-76
2022/08/04 04:24:27;;;;;;;;;;;;;;;16.13;72.39;99048.60;1463869;79;20573;-74
2022/08/04 04:26:32;;;;;;;;;;;;;;;16.21;72.38;99056.02;1461594;79;67172;-74
2022/08/04 04:28:53;;;;;;;;;;;;;;;16.26;72.41;99054.39;1464329;79;20155;-76
2022/08/04 04:31:11;;;;;;;;;;;;;;;16.33;72.40;99056.98;1465794;79;67241;-75
2022/08/04 04:33:16;;;;;;;;;;;;;;;16.39;72.42;99059.19;1435602;80;20138;-74
2022/08/04 04:35:19;;;;;;;;;;;;;;;16.46;72.42;99063.14;1435219;81;20162;-74
2022/08/04 04:37:31;;;;;;;;;;;;;;;16.53;72.47;99064.02;1434732;80;67030;-73
2022/08/04 04:39:49;;;;;;;;;;;;;;;16.58;72.48;99068.54;1435325;80;20301;-74
2022/08/04 04:41:58;;;;;;;;;;;;;;;16.65;72.49;99071.13;1432732;80;67485;-74
2022/08/04 04:44:00;;;;;;;;;;;;;;;16.72;72.49;99069.72;1441412;81;20661;-75
2022/08/04 04:46:21;;;;;;;;;;;;;;;16.78;72.51;99071.95;1434992;80;68256;-75
2022/08/04 04:48:27;;;;;;;;;;;;;;;16.85;72.52;99075.02;1437489;80;20204;-74
2022/08/04 04:50:47;;;;;;;;;;;;;;;16.92;72.59;99071.44;1431299;81;67284;-73
2022/08/04 04:52:52;;;;;;;;;;;;;;;16.98;72.58;99068.34;1437137;80;20191;-74
2022/08/04 04:55:01;;;;;;;;;;;;;;;17.05;72.55;99068.25;1435900;80;20153;-75
2022/08/04 04:57:10;;;;;;;;;;;;;;;17.10;72.55;99068.77;1433437;79;68431;-74
2022/08/04 04:59:14;;;;;;;;;;;;;;;17.17;72.60;99074.01;1438246;81;20172;-74
2022/08/04 05:01:29;;;;;;;;;;;;;;;17.24;72.61;99078.87;1446346;79;68008;-75
2022/08/04 05:03:34;;;;;;;;;;;;;;;17.27;72.61;99074.66;1451086;80;20287;-74
2022/08/04 05:05:53;;;;;;;;;;;;;;;17.35;72.64;99076.28;1428173;81;67338;-74
2022/08/04 05:08:13;;;;;;;;;;;;;;;17.42;72.62;99074.84;1434426;80;20583;-74
2022/08/04 05:10:32;;;;;;;;;;;;;;;17.52;72.61;99076.33;1436125;80;20128;-73
2022/08/04 05:12:38;;;;;;;;;;;;;;;17.61;72.58;99080.11;1436189;80;20162;-74
2022/08/04 05:14:41;;;;;;;;;;;;;;;17.70;72.59;99075.42;1435373;81;20145;-74
2022/08/04 05:16:46;;;;;;;;;;;;;;;17.78;72.66;99077.02;1431777;80;67686;-75
2022/08/04 05:18:48;;;;;;;;;;;;;;;17.86;72.63;99075.95;1418532;81;20230;-74
2022/08/04 05:20:51;;;;;;;;;;;;;;;17.96;72.67;99084.61;1434934;80;68263;-74
2022/08/04 05:22:53;;;;;;;;;;;;;;;18.03;72.70;99084.50;1433054;81;20220;-74
2022/08/04 05:24:56;;;;;;;;;;;;;;;18.13;72.72;99084.13;1436105;80;20130;-75
2022/08/04 05:26:58;;;;;;;;;;;;;;;18.23;72.62;99080.75;1435082;79;67070;-74
2022/08/04 05:29:01;;;;;;;;;;;;;;;18.33;72.65;99087.92;1434200;81;20158;-74
2022/08/04 05:31:03;;;;;;;;;;;;;;;18.44;72.52;99085.75;1434722;80;68046;-74
2022/08/04 05:33:06;;;;;;;;;;;;;;;18.54;72.50;99084.53;1433539;80;20286;-74
2022/08/04 05:35:09;;;;;;;;;;;;;;;18.63;72.40;99082.94;1435788;81;20089;-75
2022/08/04 05:37:11;;;;;;;;;;;;;;;18.72;72.40;99083.54;1438153;80;67286;-74
2022/08/04 05:39:17;;;;;;;;;;;;;;;18.82;72.26;99089.82;1435345;80;20161;-73
2022/08/04 05:41:17;;;;;;;;;;;;;;;18.89;72.16;99087.05;1432916;80;67908;-74
2022/08/04 05:43:19;;;;;;;;;;;;;;;18.98;72.21;99087.27;1436988;80;20135;-74
2022/08/04 05:45:22;;;;;;;;;;;;;;;19.08;72.16;99092.23;1438876;80;20171;-74
2022/08/04 05:47:23;;;;;;;;;;;;;;;19.17;72.00;99094.13;1432491;81;67030;-74
2022/08/04 05:49:26;;;;;;;;;;;;;;;19.25;71.93;99092.19;1433637;80;20132;-74
2022/08/04 05:51:29;;;;;;;;;;;;;;;19.33;71.90;99096.41;1432562;80;66937;-74
2022/08/04 05:53:31;;;;;;;;;;;;;;;19.40;71.74;99100.77;1434188;80;20431;-75
2022/08/04 05:55:31;;;;;;;;;;;;;;;19.48;71.69;99100.97;1433194;79;67349;-74
2022/08/04 05:57:33;;;;;;;;;;;;;;;19.54;71.56;99095.09;1465072;79;20152;-75
2022/08/04 05:59:35;;;;;;;;;;;;;;;19.61;71.41;99099.45;1435262;81;20456;-73
2022/08/04 06:01:37;;;;;;;;;;;;;;;19.69;71.36;99096.98;1431853;80;67201;-74
2022/08/04 06:03:38;;;;;;;;;;;;;;;19.78;71.21;99097.19;1435131;80;20146;-73
2022/08/04 06:05:41;;;;;;;;;;;;;;;19.83;71.10;99101.19;1432176;80;67089;-75
2022/08/04 06:07:43;;;;;;;;;;;;;;;19.88;70.91;99094.10;1436605;80;20166;-74
2022/08/04 06:09:44;;;;;;;;;;;;;;;19.95;70.99;99094.44;1433229;80;20152;-74
2022/08/04 06:11:45;;;;;;;;;;;;;;;20.03;70.97;99092.78;1433951;81;67275;-74
2022/08/04 06:13:57;;;;;;;;;;;;;;;20.14;70.89;99095.88;1434209;80;20194;-74
2022/08/04 06:16:00;;;;;;;;;;;;;;;20.23;70.70;99103.63;1431634;80;68039;-74
2022/08/04 06:18:03;;;;;;;;;;;;;;;20.31;70.58;99108.30;1437214;80;20128;-74
2022/08/04 06:20:06;;;;;;;;;;;;;;;20.37;70.47;99108.63;1435972;81;20163;-74
2022/08/04 06:22:08;;;;;;;;;;;;;;;20.46;70.39;99110.14;1434008;79;67281;-75
2022/08/04 06:24:11;;;;;;;;;;;;;;;20.56;70.28;99111.02;1434964;80;20134;-74
2022/08/04 06:26:18;;;;;;;;;;;;;;;20.64;70.07;99105.00;1432919;80;68245;-75
2022/08/04 06:28:15;;;;;;;;;;;;;;;20.69;69.89;99099.62;1436786;80;20970;-75
2022/08/04 06:30:18;;;;;;;;;;;;;;;20.73;69.76;99102.89;1435799;80;20140;-75
2022/08/04 06:32:29;;;;;;;;;;;;;;;20.82;69.89;99103.39;1432461;80;67575;-75
2022/08/04 06:34:31;;;;;;;;;;;;;;;20.95;69.68;99107.18;1422178;81;20224;-75
2022/08/04 06:36:37;;;;;;;;;;;;;;;20.98;69.48;99110.08;1432388;80;68390;-75
2022/08/04 06:38:40;;;;;;;;;;;;;;;21.05;69.60;99105.36;1434708;81;20154;-73
2022/08/04 06:40:41;;;;;;;;;;;;;;;21.11;69.19;99105.80;1434722;80;67879;-74
2022/08/04 06:42:42;;;;;;;;;;;;;;;21.15;69.03;99111.23;1434629;80;20332;-75
2022/08/04 06:44:45;;;;;;;;;;;;;;;21.19;68.93;99109.97;1436774;80;20165;-75
2022/08/04 06:46:46;;;;;;;;;;;;;;;21.24;68.93;99111.75;1432495;80;67065;-75
2022/08/04 06:48:48;;;;;;;;;;;;;;;21.33;68.98;99104.70;1433968;80;20202;-75
2022/08/04 06:50:49;;;;;;;;;;;;;;;21.45;68.80;99099.55;1437358;80;67962;-75
2022/08/04 06:52:50;;;;;;;;;;;;;;;21.54;68.66;99105.42;1437351;80;20744;-76
2022/08/04 06:54:52;;;;;;;;;;;;;;;21.65;68.54;99104.44;1418961;81;20239;-74
2022/08/04 06:56:54;;;;;;;;;;;;;;;21.72;68.38;99106.94;1435127;80;67755;-74
2022/08/04 06:58:55;;;;;;;;;;;;;;;21.84;68.25;99101.41;1436630;80;20254;-75
2022/08/04 07:01:00;;;;;;;;;;;;;;;21.91;68.20;99097.98;1431377;80;67107;-75
2022/08/04 07:03:00;;;;;;;;;;;;;;;22.03;68.20;99099.16;1434848;80;20428;-75
2022/08/04 07:05:01;;;;;;;;;;;;;;;22.11;67.85;99100.63;1433449;80;20549;-75
2022/08/04 07:07:01;;;;;;;;;;;;;;;22.22;67.92;99103.64;1433871;79;68358;-75
2022/08/04 07:09:02;;;;;;;;;;;;;;;22.35;67.76;99103.38;1437368;80;20128;-75
2022/08/04 07:11:04;;;;;;;;;;;;;;;22.45;67.35;99096.12;1432431;80;67054;-74
2022/08/04 07:13:06;;;;;;;;;;;;;;;22.49;67.24;99097.52;1435548;80;20147;-74
2022/08/04 07:15:07;;;;;;;;;;;;;;;22.55;67.22;99094.22;1434599;80;20145;-74
2022/08/04 07:17:08;;;;;;;;;;;;;;;22.65;67.12;99093.34;1433693;80;67890;-74
2022/08/04 07:19:09;;;;;;;;;;;;;;;22.76;67.03;99087.77;1436208;80;20530;-75
2022/08/04 07:21:10;;;;;;;;;;;;;;;22.89;66.85;99094.98;1435052;80;67206;-75
2022/08/04 07:23:16;;;;;;;;;;;;;;;23.00;66.68;99093.08;1435734;81;20150;-75
2022/08/04 07:25:15;;;;;;;;;;;;;;;23.13;66.51;99096.28;1439190;80;20192;-75
2022/08/04 07:27:16;;;;;;;;;;;;;;;23.26;66.39;99095.42;1433647;79;68105;-74
2022/08/04 07:29:16;;;;;;;;;;;;;;;23.35;65.80;99099.55;1436427;81;20171;-73
2022/08/04 07:31:18;;;;;;;;;;;;;;;23.41;65.89;99096.23;1433284;79;67044;-73
2022/08/04 07:33:19;;;;;;;;;;;;;;;23.56;65.78;99097.37;1433592;80;20126;-75
2022/08/04 07:35:21;;;;;;;;;;;;;;;23.67;65.56;99098.15;1431471;81;20202;-75
2022/08/04 07:37:21;;;;;;;;;;;;;;;23.83;65.25;99099.63;1431845;79;67038;-73
2022/08/04 07:39:24;;;;;;;;;;;;;;;23.91;64.43;99100.20;1439848;80;20266;-74
2022/08/04 07:41:25;;;;;;;;;;;;;;;24.01;64.60;99100.11;1435119;80;67277;-74
2022/08/04 07:43:26;;;;;;;;;;;;;;;24.17;63.92;99102.08;1435539;80;20137;-75
2022/08/04 07:45:27;;;;;;;;;;;;;;;24.28;63.18;99093.73;1432755;80;67182;-74
2022/08/04 07:47:29;;;;;;;;;;;;;;;24.40;63.43;99093.80;1435922;80;20180;-77
2022/08/04 07:49:33;;;;;;;;;;;;;;;24.55;62.72;99102.13;1433409;80;20134;-75
2022/08/04 07:51:36;;;;;;;;;;;;;;;24.60;62.72;99099.81;1432876;80;67817;-75
2022/08/04 07:53:38;;;;;;;;;;;;;;;24.74;62.08;99100.22;1434196;80;20139;-74
2022/08/04 07:55:39;;;;;;;;;;;;;;;24.83;60.90;99097.90;1434281;80;67301;-76
2022/08/04 07:57:40;;;;;;;;;;;;;;;24.90;61.51;99096.23;1419157;81;20607;-76
2022/08/04 07:59:41;;;;;;;;;;;;;;;25.02;61.16;99089.19;1434650;81;20132;-76
2022/08/04 08:01:42;;;;;;;;;;;;;;;25.13;60.61;99091.08;1434255;80;67133;-74
2022/08/04 08:03:45;;;;;;;;;;;;;;;25.09;60.40;99082.98;1421510;81;20204;-76
2022/08/04 08:05:46;;;;;;;;;;;;;;;25.22;60.39;99093.28;1432144;80;68058;-74
2022/08/04 08:07:50;;;;;;;;;;;;;;;25.28;60.23;99089.08;1437985;80;20150;-76
2022/08/04 08:09:51;;;;;;;;;;;;;;;25.38;60.46;99098.39;1434994;80;20149;-74
2022/08/04 08:11:52;;;;;;;;;;;;;;;25.47;59.61;99096.88;1434349;80;67208;-75
2022/08/04 08:13:54;;;;;;;;;;;;;;;25.46;58.92;99097.05;1434063;80;20474;-74
2022/08/04 08:15:55;;;;;;;;;;;;;;;25.46;58.60;99094.36;1438503;80;67126;-75
2022/08/04 08:17:56;;;;;;;;;;;;;;;25.47;57.89;99096.05;1460000;78;20659;-76
2022/08/04 08:19:59;;;;;;;;;;;;;;;25.50;58.73;99095.71;1434138;80;20150;-76
2022/08/04 08:22:01;;;;;;;;;;;;;;;25.57;58.71;99094.02;1436672;80;67504;-76
2022/08/04 08:24:02;;;;;;;;;;;;;;;25.65;57.99;99092.67;1435677;81;20129;-75
2022/08/04 08:26:04;;;;;;;;;;;;;;;25.68;57.54;99087.45;1465489;78;67083;-74
2022/08/04 08:28:05;;;;;;;;;;;;;;;25.76;58.15;99086.10;1442698;80;20139;-75
2022/08/04 08:30:07;;;;;;;;;;;;;;;25.89;57.46;99092.36;1435468;81;20235;-76
2022/08/04 08:32:12;;;;;;;;;;;;;;;26.02;57.37;99089.65;1435560;80;66948;-75
2022/08/04 08:34:13;;;;;;;;;;;;;;;26.09;57.50;99087.45;1435887;80;21010;-76
2022/08/04 08:36:21;;;;;;;;;;;;;;;26.19;57.10;99094.54;1435085;80;67914;-75
2022/08/04 08:38:27;;;;;;;;;;;;;;;26.18;56.69;99096.38;1434066;80;20458;-75
2022/08/04 08:40:32;;;;;;;;;;;;;;;26.22;56.30;99096.89;1391634;83;67222;-75
2022/08/04 08:42:44;;;;;;;;;;;;;;;26.26;56.45;99099.06;1393026;83;20259;-75
2022/08/04 08:44:46;;;;;;;;;;;;;;;26.40;56.67;99089.41;1391907;83;20550;-74
2022/08/04 08:46:54;;;;;;;;;;;;;;;26.55;56.24;99092.23;1387502;83;67306;-75
2022/08/04 08:49:13;;;;;;;;;;;;;;;26.63;55.91;99093.55;1392680;83;20135;-74
2022/08/04 08:53:32;;;;;;;5.10;2.70;;;;;;;26.81;55.72;99096.05;1490096;74;69883;-74
2022/08/04 08:56:02;;;;;;;2.72;2.52;;;;;;;26.82;55.49;99090.11;1448474;78;81854;-75
2022/08/04 08:58:06;;;;;;;3.50;3.20;;;;;;;26.87;54.85;99098.55;1449979;81;21056;-75
2022/08/04 09:02:17;;;;;;;2.80;2.60;;;;;;;26.87;54.34;99097.61;86389;1296;542992;-74
2022/08/04 09:04:37;;;;;;;8.40;3.20;;;;;;;26.84;53.87;99094.38;87422;1286;26566;-74
2022/08/04 09:07:00;;;;;;;4.00;2.70;;;;;;;26.86;53.83;99094.73;86462;1287;214993;-74
2022/08/04 09:09:17;;;;;;;3.00;2.60;;;;;;;26.82;53.35;99093.16;87330;1286;93833;-74
2022/08/04 09:11:22;;;;;;;2.70;2.50;;;;;;;26.83;53.61;99092.52;87297;1287;98314;-74
2022/08/04 09:13:39;;;;;;;6.10;2.70;;;;;;;26.85;53.56;99090.81;88264;1276;24302;-72
2022/08/04 09:15:53;;;;;;;10.10;2.50;;;;;;;26.94;53.42;99090.38;87232;1273;1228490;-74
2022/08/04 09:18:22;;;;;;;4.20;2.60;;;;;;;27.02;52.96;99087.59;88358;1274;22603;-74
2022/08/04 09:20:48;;;;;;;3.30;2.40;;;;;;;27.10;52.92;99088.42;88214;1273;98372;-74
2022/08/04 09:22:59;;;;;;;4.80;2.40;;;;;;;27.17;52.58;99089.34;88381;1271;22504;-74
2022/08/04 09:25:24;;;;;;;3.80;2.60;;;;;;;27.12;52.14;99089.60;88034;1276;98852;-75
2022/08/04 09:27:37;;;;;;;11.80;2.60;;;;;;;27.10;52.36;99080.21;88232;1275;23214;-73
2022/08/04 09:29:46;;;;;;;3.30;2.60;;;;;;;27.17;52.11;99086.13;88061;1275;98678;-74
2022/08/04 09:31:56;;;;;;;3.80;2.80;;;;;;;27.27;52.38;99094.64;88159;1276;22729;-74
2022/08/04 09:34:16;;;;;;;2.80;2.10;;;;;;;27.36;52.35;99088.38;88253;1275;22575;-73
2022/08/04 09:36:22;;;;;;;5.60;2.40;;;;;;;27.42;51.80;99089.95;88237;1274;22588;-74
2022/08/04 09:38:42;;;;;;;2.50;2.30;;;;;;;27.48;51.77;99090.14;88228;1275;22572;-74
2022/08/04 09:40:59;;;;;;;5.80;2.60;;;;;;;27.57;51.87;99089.08;88874;1275;100013;-74
2022/08/04 09:43:00;;;;;;;4.00;2.50;;;;;;;27.66;51.61;99089.02;88238;1275;22733;-75
2022/08/04 09:45:11;;;;;;;2.50;2.20;;;;;;;27.74;51.32;99090.47;88841;1275;98455;-74
2022/08/04 09:47:25;;;;;;;3.30;2.30;;;;;;;27.82;51.31;99084.98;88197;1277;22803;-74
2022/08/04 09:49:37;;;;;;;3.50;2.50;;;;;;;27.94;50.58;99086.33;88235;1274;100651;-74
2022/08/04 09:51:52;;;;;;;2.60;2.20;;;;;;;27.98;49.40;99086.78;88244;1277;22708;-73
2022/08/04 09:54:00;;;;;;;10.00;2.50;;;;;;;27.98;49.85;99084.21;88269;1276;24262;-74
2022/08/04 09:56:18;;;;;;;2.30;2.00;;;;;;;28.08;50.24;99088.13;88044;1275;98913;-74
2022/08/04 09:58:52;;;;;;;2.90;2.20;;;;;;;28.16;49.30;99084.46;88036;1275;98642;-74
2022/08/04 10:01:11;;;;;;;5.80;2.60;;;;;;;28.28;49.64;99086.26;88448;1274;98637;-75
2022/08/04 10:03:18;;;;;;;2.50;2.20;;;;;;;28.47;49.49;99080.56;88054;1278;98911;-75
2022/08/04 10:05:26;;;;;;;2.60;2.40;;;;;;;28.57;49.22;99077.53;88286;1274;99115;-74
2022/08/04 10:07:34;;;;;;;4.80;3.00;;;;;;;28.61;49.11;99073.96;87999;1278;23187;-76
2022/08/04 10:09:49;;;;;;;3.60;2.70;;;;;;;28.72;49.19;99064.31;88122;1275;99133;-75
2022/08/04 10:11:56;;;;;;;3.00;2.30;;;;;;;28.95;49.53;99068.56;88321;1274;22687;-73
2022/08/04 10:14:03;;;;;;;4.20;2.30;;;;;;;28.99;48.03;99070.79;88270;1274;22794;-75
2022/08/04 10:16:27;;;;;;;5.20;2.20;;;;;;;28.85;48.21;99072.10;88172;1274;98764;-74
2022/08/04 10:18:57;;;;;;;3.60;2.80;;;;;;;28.81;48.55;99069.05;88385;1273;22572;-73
2022/08/04 10:21:14;;;;;;;2.50;2.30;;;;;;;28.85;48.24;99069.16;88267;1273;98840;-73
2022/08/04 10:23:46;;;;;;;2.90;2.40;;;;;;;28.81;47.96;99064.82;88280;1274;22630;-73
2022/08/04 10:26:15;;;;;;;3.50;2.20;;;;;;;28.75;48.35;99061.60;88200;1274;98764;-74
2022/08/04 10:28:21;;;;;;;2.60;2.40;;;;;;;28.93;48.28;99055.89;88286;1273;98241;-74
2022/08/04 10:30:24;;;;;;;2.90;2.30;;;;;;;29.09;47.55;99055.23;88224;1276;98527;-75
2022/08/04 10:32:41;;;;;;;10.90;2.70;;;;;;;29.17;47.94;99056.70;88332;1274;22626;-76
2022/08/04 10:35:08;;;;;;;17.30;2.90;;;;;;;29.28;46.97;99055.45;88008;1274;98874;-74
2022/08/04 10:37:38;;;;;;;10.70;2.60;;;;;;;29.24;47.16;99055.23;88279;1274;22587;-74
2022/08/04 10:42:34;;;;;;;6.20;2.50;;;;;;;29.17;46.63;99055.14;88220;1275;22599;-74
2022/08/04 10:44:59;;;;;;;3.70;2.40;;;;;;;29.05;46.99;99058.23;88004;1276;98557;-74
2022/08/04 10:47:07;;;;;;;6.70;3.00;;;;;;;28.98;47.09;99052.73;88155;1274;98392;-74
2022/08/04 10:49:20;;;;;;;10.20;3.70;;;;;;;28.98;47.32;99051.85;88269;1276;23072;-77
2022/08/04 10:51:44;;;;;;;9.10;3.10;;;;;;;29.00;47.22;99049.80;88351;1274;98536;-76
2022/08/04 10:53:54;;;;;;;5.20;3.50;;;;;;;29.06;47.01;99053.02;88244;1276;25285;-75
2022/08/04 10:56:03;;;;;;;5.70;3.20;;;;;;;28.97;47.51;99050.14;88195;1274;99140;-75
2022/08/04 10:58:08;;;;;;;10.90;3.10;;;;;;;29.11;47.80;99047.22;88296;1274;98839;-75
2022/08/04 11:00:26;;;;;;;4.20;3.30;;;;;;;29.23;47.67;99047.33;88138;1276;98613;-74
2022/08/04 11:03:04;;;;;;;2.80;2.60;;;;;;;29.22;46.94;99054.55;88147;1275;23397;-75